sensor_id;sensor_type;location;lat;lon;timestamp;P1;durP1;ratioP1;P2;durP2;ratioP2
5133;SDS011;2585;48.696;10.066;2023-02-01T00:01:09;6.32;;;4.65;;
5133;SDS011;2585;48.696;10.066;2023-02-01T00:03:36;8.07;;;4.70;;
5133;SDS011;2585;48.696;10.066;2023-02-01T00:06:03;6.82;;;4.43;;
5133;SDS011;2585;48.696;10.066;2023-02-01T00:08:30;8.75;;;4.78;;
5133;SDS011;2585;48.696;10.066;2023-02-01T00:10:57;8.23;;;4.22;;
5133;SDS011;2585;48.696;10.066;2023-02-01T00:13:27;9.02;;;4.85;;
5133;SDS011;2585;48.696;10.066;2023-02-01T00:15:54;7.07;;;4.18;;
5133;SDS011;2585;48.696;10.066;2023-02-01T00:18:27;6.05;;;4.00;;
5133;SDS011;2585;48.696;10.066;2023-02-01T00:20:54;5.18;;;3.50;;
5133;SDS011;2585;48.696;10.066;2023-02-01T00:23:21;7.03;;;3.50;;
5133;SDS011;2585;48.696;10.066;2023-02-01T00:25:47;4.50;;;3.45;;
5133;SDS011;2585;48.696;10.066;2023-02-01T00:28:14;4.95;;;3.40;;
5133;SDS011;2585;48.696;10.066;2023-02-01T00:30:41;5.40;;;3.42;;
5133;SDS011;2585;48.696;10.066;2023-02-01T00:33:08;7.85;;;3.78;;
5133;SDS011;2585;48.696;10.066;2023-02-01T00:35:35;5.63;;;3.42;;
5133;SDS011;2585;48.696;10.066;2023-02-01T00:38:02;5.10;;;3.78;;
5133;SDS011;2585;48.696;10.066;2023-02-01T00:40:29;5.60;;;3.05;;
5133;SDS011;2585;48.696;10.066;2023-02-01T00:42:55;4.35;;;3.50;;
5133;SDS011;2585;48.696;10.066;2023-02-01T00:45:23;7.45;;;3.60;;
5133;SDS011;2585;48.696;10.066;2023-02-01T00:47:50;7.30;;;3.67;;
5133;SDS011;2585;48.696;10.066;2023-02-01T00:50:17;5.40;;;3.25;;
5133;SDS011;2585;48.696;10.066;2023-02-01T00:52:44;7.35;;;3.38;;
5133;SDS011;2585;48.696;10.066;2023-02-01T00:55:11;7.90;;;3.67;;
5133;SDS011;2585;48.696;10.066;2023-02-01T00:57:38;4.97;;;3.60;;
5133;SDS011;2585;48.696;10.066;2023-02-01T01:00:05;4.63;;;3.08;;
5133;SDS011;2585;48.696;10.066;2023-02-01T01:02:32;5.35;;;3.35;;
5133;SDS011;2585;48.696;10.066;2023-02-01T01:04:58;3.63;;;2.85;;
5133;SDS011;2585;48.696;10.066;2023-02-01T01:07:25;5.10;;;2.42;;
5133;SDS011;2585;48.696;10.066;2023-02-01T01:09:53;2.72;;;2.30;;
5133;SDS011;2585;48.696;10.066;2023-02-01T01:12:21;2.78;;;2.03;;
5133;SDS011;2585;48.696;10.066;2023-02-01T01:14:47;3.50;;;2.90;;
5133;SDS011;2585;48.696;10.066;2023-02-01T01:17:14;4.68;;;2.78;;
5133;SDS011;2585;48.696;10.066;2023-02-01T01:19:41;2.42;;;2.10;;
5133;SDS011;2585;48.696;10.066;2023-02-01T01:22:08;3.22;;;2.25;;
5133;SDS011;2585;48.696;10.066;2023-02-01T01:24:35;2.67;;;1.70;;
5133;SDS011;2585;48.696;10.066;2023-02-01T01:27:01;5.05;;;1.80;;
5133;SDS011;2585;48.696;10.066;2023-02-01T01:29:29;2.80;;;2.10;;
5133;SDS011;2585;48.696;10.066;2023-02-01T01:31:55;4.53;;;2.35;;
5133;SDS011;2585;48.696;10.066;2023-02-01T01:34:22;2.78;;;2.00;;
5133;SDS011;2585;48.696;10.066;2023-02-01T01:36:49;2.47;;;2.00;;
5133;SDS011;2585;48.696;10.066;2023-02-01T01:39:15;2.53;;;2.10;;
5133;SDS011;2585;48.696;10.066;2023-02-01T01:41:42;2.20;;;1.95;;
5133;SDS011;2585;48.696;10.066;2023-02-01T01:47:14;1.88;;;1.40;;
5133;SDS011;2585;48.696;10.066;2023-02-01T01:49:41;1.92;;;1.60;;
5133;SDS011;2585;48.696;10.066;2023-02-01T01:52:09;2.05;;;1.80;;
5133;SDS011;2585;48.696;10.066;2023-02-01T01:54:37;2.95;;;2.03;;
5133;SDS011;2585;48.696;10.066;2023-02-01T01:57:08;2.92;;;2.38;;
5133;SDS011;2585;48.696;10.066;2023-02-01T01:59:45;4.90;;;1.90;;
5133;SDS011;2585;48.696;10.066;2023-02-01T02:02:16;2.30;;;1.60;;
5133;SDS011;2585;48.696;10.066;2023-02-01T02:04:43;2.92;;;2.25;;
5133;SDS011;2585;48.696;10.066;2023-02-01T02:07:11;3.67;;;2.10;;
5133;SDS011;2585;48.696;10.066;2023-02-01T02:09:46;2.42;;;1.60;;
5133;SDS011;2585;48.696;10.066;2023-02-01T02:12:25;3.08;;;1.60;;
5133;SDS011;2585;48.696;10.066;2023-02-01T02:14:52;3.67;;;1.50;;
5133;SDS011;2585;48.696;10.066;2023-02-01T02:40:04;2.03;;;1.20;;
5133;SDS011;2585;48.696;10.066;2023-02-01T02:42:40;2.53;;;1.65;;
5133;SDS011;2585;48.696;10.066;2023-02-01T02:48:30;1.60;;;1.50;;
5133;SDS011;2585;48.696;10.066;2023-02-01T02:51:05;2.22;;;1.30;;
5133;SDS011;2585;48.696;10.066;2023-02-01T02:54:00;1.92;;;1.52;;
5133;SDS011;2585;48.696;10.066;2023-02-01T02:56:51;2.05;;;1.35;;
5133;SDS011;2585;48.696;10.066;2023-02-01T02:59:37;2.00;;;1.27;;
5133;SDS011;2585;48.696;10.066;2023-02-01T03:02:25;2.22;;;1.30;;
5133;SDS011;2585;48.696;10.066;2023-02-01T03:05:12;1.98;;;1.50;;
5133;SDS011;2585;48.696;10.066;2023-02-01T03:10:59;1.48;;;1.33;;
5133;SDS011;2585;48.696;10.066;2023-02-01T03:13:07;1.98;;;1.40;;
5133;SDS011;2585;48.696;10.066;2023-02-01T03:16:01;1.85;;;1.50;;
5133;SDS011;2585;48.696;10.066;2023-02-01T03:18:46;2.05;;;1.50;;
5133;SDS011;2585;48.696;10.066;2023-02-01T03:21:19;1.42;;;1.20;;
5133;SDS011;2585;48.696;10.066;2023-02-01T03:23:50;2.10;;;1.52;;
5133;SDS011;2585;48.696;10.066;2023-02-01T03:26:19;1.85;;;1.50;;
5133;SDS011;2585;48.696;10.066;2023-02-01T03:28:49;1.67;;;1.35;;
5133;SDS011;2585;48.696;10.066;2023-02-01T03:31:22;2.33;;;1.20;;
5133;SDS011;2585;48.696;10.066;2023-02-01T03:33:49;1.55;;;1.40;;
5133;SDS011;2585;48.696;10.066;2023-02-01T03:36:25;2.58;;;1.60;;
5133;SDS011;2585;48.696;10.066;2023-02-01T03:41:56;1.58;;;1.48;;
5133;SDS011;2585;48.696;10.066;2023-02-01T03:44:30;2.83;;;1.60;;
5133;SDS011;2585;48.696;10.066;2023-02-01T03:47:20;2.08;;;1.38;;
5133;SDS011;2585;48.696;10.066;2023-02-01T03:49:50;2.10;;;1.75;;
5133;SDS011;2585;48.696;10.066;2023-02-01T03:52:40;2.10;;;1.80;;
5133;SDS011;2585;48.696;10.066;2023-02-01T03:55:10;3.60;;;2.33;;
5133;SDS011;2585;48.696;10.066;2023-02-01T03:57:45;10.02;;;2.10;;
5133;SDS011;2585;48.696;10.066;2023-02-01T04:00:24;1.75;;;1.65;;
5133;SDS011;2585;48.696;10.066;2023-02-01T04:02:52;5.43;;;1.92;;
5133;SDS011;2585;48.696;10.066;2023-02-01T04:05:20;1.92;;;1.73;;
5133;SDS011;2585;48.696;10.066;2023-02-01T04:07:47;2.15;;;1.70;;
5133;SDS011;2585;48.696;10.066;2023-02-01T04:10:14;2.00;;;1.80;;
5133;SDS011;2585;48.696;10.066;2023-02-01T04:12:44;2.92;;;1.90;;
5133;SDS011;2585;48.696;10.066;2023-02-01T04:15:11;3.90;;;2.38;;
5133;SDS011;2585;48.696;10.066;2023-02-01T04:17:38;4.78;;;2.35;;
5133;SDS011;2585;48.696;10.066;2023-02-01T04:20:05;3.03;;;2.30;;
5133;SDS011;2585;48.696;10.066;2023-02-01T04:22:32;2.20;;;1.95;;
5133;SDS011;2585;48.696;10.066;2023-02-01T04:24:59;1.50;;;1.40;;
5133;SDS011;2585;48.696;10.066;2023-02-01T04:27:26;2.47;;;1.60;;
5133;SDS011;2585;48.696;10.066;2023-02-01T04:29:53;1.60;;;1.50;;
5133;SDS011;2585;48.696;10.066;2023-02-01T04:32:22;3.25;;;1.70;;
5133;SDS011;2585;48.696;10.066;2023-02-01T04:34:49;1.40;;;1.30;;
5133;SDS011;2585;48.696;10.066;2023-02-01T04:37:16;3.90;;;1.50;;
5133;SDS011;2585;48.696;10.066;2023-02-01T04:39:42;1.60;;;1.50;;
5133;SDS011;2585;48.696;10.066;2023-02-01T04:42:09;1.80;;;1.60;;
5133;SDS011;2585;48.696;10.066;2023-02-01T04:44:36;1.65;;;1.55;;
5133;SDS011;2585;48.696;10.066;2023-02-01T04:47:05;1.95;;;1.30;;
5133;SDS011;2585;48.696;10.066;2023-02-01T04:49:32;5.93;;;1.70;;
5133;SDS011;2585;48.696;10.066;2023-02-01T04:51:59;2.50;;;1.98;;
5133;SDS011;2585;48.696;10.066;2023-02-01T04:54:26;3.13;;;1.60;;
5133;SDS011;2585;48.696;10.066;2023-02-01T04:56:53;2.42;;;1.70;;
5133;SDS011;2585;48.696;10.066;2023-02-01T04:59:20;1.73;;;1.63;;
5133;SDS011;2585;48.696;10.066;2023-02-01T05:01:46;2.55;;;1.67;;
5133;SDS011;2585;48.696;10.066;2023-02-01T05:04:14;2.55;;;1.92;;
5133;SDS011;2585;48.696;10.066;2023-02-01T05:06:41;1.50;;;1.40;;
5133;SDS011;2585;48.696;10.066;2023-02-01T05:09:07;1.85;;;1.48;;
5133;SDS011;2585;48.696;10.066;2023-02-01T05:11:34;2.90;;;1.77;;
5133;SDS011;2585;48.696;10.066;2023-02-01T05:14:19;2.40;;;1.58;;
5133;SDS011;2585;48.696;10.066;2023-02-01T05:16:46;1.55;;;1.45;;
5133;SDS011;2585;48.696;10.066;2023-02-01T05:19:13;1.50;;;1.40;;
5133;SDS011;2585;48.696;10.066;2023-02-01T05:21:40;1.73;;;1.63;;
5133;SDS011;2585;48.696;10.066;2023-02-01T05:24:07;2.13;;;1.70;;
5133;SDS011;2585;48.696;10.066;2023-02-01T05:26:45;2.42;;;1.58;;
5133;SDS011;2585;48.696;10.066;2023-02-01T05:29:13;2.95;;;1.75;;
5133;SDS011;2585;48.696;10.066;2023-02-01T05:31:41;2.40;;;1.80;;
5133;SDS011;2585;48.696;10.066;2023-02-01T05:34:12;3.78;;;2.00;;
5133;SDS011;2585;48.696;10.066;2023-02-01T05:36:39;3.63;;;1.90;;
5133;SDS011;2585;48.696;10.066;2023-02-01T05:39:06;2.35;;;1.83;;
5133;SDS011;2585;48.696;10.066;2023-02-01T05:41:33;1.75;;;1.65;;
5133;SDS011;2585;48.696;10.066;2023-02-01T05:43:59;3.28;;;1.80;;
5133;SDS011;2585;48.696;10.066;2023-02-01T05:46:26;3.15;;;1.67;;
5133;SDS011;2585;48.696;10.066;2023-02-01T05:48:53;2.80;;;1.65;;
5133;SDS011;2585;48.696;10.066;2023-02-01T05:51:20;2.20;;;1.65;;
5133;SDS011;2585;48.696;10.066;2023-02-01T05:53:49;1.63;;;1.52;;
5133;SDS011;2585;48.696;10.066;2023-02-01T05:56:15;2.08;;;1.65;;
5133;SDS011;2585;48.696;10.066;2023-02-01T05:58:42;2.88;;;1.65;;
5133;SDS011;2585;48.696;10.066;2023-02-01T06:01:09;3.85;;;1.80;;
5133;SDS011;2585;48.696;10.066;2023-02-01T06:03:36;2.22;;;1.60;;
5133;SDS011;2585;48.696;10.066;2023-02-01T06:06:04;5.80;;;1.92;;
5133;SDS011;2585;48.696;10.066;2023-02-01T06:08:31;2.22;;;1.70;;
5133;SDS011;2585;48.696;10.066;2023-02-01T06:11:02;2.55;;;1.98;;
5133;SDS011;2585;48.696;10.066;2023-02-01T06:13:30;2.97;;;1.83;;
5133;SDS011;2585;48.696;10.066;2023-02-01T06:16:00;3.22;;;2.05;;
5133;SDS011;2585;48.696;10.066;2023-02-01T06:18:33;3.53;;;2.00;;
5133;SDS011;2585;48.696;10.066;2023-02-01T06:21:01;2.95;;;1.75;;
5133;SDS011;2585;48.696;10.066;2023-02-01T06:23:28;3.03;;;2.10;;
5133;SDS011;2585;48.696;10.066;2023-02-01T06:26:00;3.13;;;1.55;;
5133;SDS011;2585;48.696;10.066;2023-02-01T06:28:31;4.15;;;1.80;;
5133;SDS011;2585;48.696;10.066;2023-02-01T06:31:03;4.30;;;1.88;;
5133;SDS011;2585;48.696;10.066;2023-02-01T06:33:33;3.00;;;2.10;;
5133;SDS011;2585;48.696;10.066;2023-02-01T06:36:02;3.90;;;2.10;;
5133;SDS011;2585;48.696;10.066;2023-02-01T06:38:31;1.95;;;1.73;;
5133;SDS011;2585;48.696;10.066;2023-02-01T06:41:01;3.15;;;1.80;;
5133;SDS011;2585;48.696;10.066;2023-02-01T06:43:28;2.85;;;1.85;;
5133;SDS011;2585;48.696;10.066;2023-02-01T06:46:02;1.83;;;1.52;;
5133;SDS011;2585;48.696;10.066;2023-02-01T06:48:31;4.88;;;2.35;;
5133;SDS011;2585;48.696;10.066;2023-02-01T06:50:58;5.57;;;1.85;;
5133;SDS011;2585;48.696;10.066;2023-02-01T06:53:25;1.88;;;1.73;;
5133;SDS011;2585;48.696;10.066;2023-02-01T06:55:53;2.35;;;2.03;;
5133;SDS011;2585;48.696;10.066;2023-02-01T06:58:28;2.90;;;2.35;;
5133;SDS011;2585;48.696;10.066;2023-02-01T07:01:04;3.53;;;2.13;;
5133;SDS011;2585;48.696;10.066;2023-02-01T07:03:32;2.63;;;2.00;;
5133;SDS011;2585;48.696;10.066;2023-02-01T07:05:59;2.70;;;1.95;;
5133;SDS011;2585;48.696;10.066;2023-02-01T07:08:29;5.43;;;1.80;;
5133;SDS011;2585;48.696;10.066;2023-02-01T07:11:03;2.15;;;1.95;;
5133;SDS011;2585;48.696;10.066;2023-02-01T07:13:31;2.88;;;1.63;;
5133;SDS011;2585;48.696;10.066;2023-02-01T07:15:59;2.58;;;1.65;;
5133;SDS011;2585;48.696;10.066;2023-02-01T07:18:31;2.20;;;1.98;;
5133;SDS011;2585;48.696;10.066;2023-02-01T07:20:58;3.72;;;2.00;;
5133;SDS011;2585;48.696;10.066;2023-02-01T07:23:26;3.45;;;1.85;;
5133;SDS011;2585;48.696;10.066;2023-02-01T07:25:54;2.85;;;2.30;;
5133;SDS011;2585;48.696;10.066;2023-02-01T07:28:22;3.50;;;2.20;;
5133;SDS011;2585;48.696;10.066;2023-02-01T07:30:49;4.10;;;3.00;;
5133;SDS011;2585;48.696;10.066;2023-02-01T07:33:19;4.32;;;2.53;;
5133;SDS011;2585;48.696;10.066;2023-02-01T07:35:48;4.05;;;2.15;;
5133;SDS011;2585;48.696;10.066;2023-02-01T07:38:18;3.67;;;1.95;;
5133;SDS011;2585;48.696;10.066;2023-02-01T07:40:47;3.45;;;2.30;;
5133;SDS011;2585;48.696;10.066;2023-02-01T07:43:15;3.33;;;2.20;;
5133;SDS011;2585;48.696;10.066;2023-02-01T07:45:42;4.00;;;3.58;;
5133;SDS011;2585;48.696;10.066;2023-02-01T07:48:09;4.90;;;2.40;;
5133;SDS011;2585;48.696;10.066;2023-02-01T07:50:36;2.45;;;2.10;;
5133;SDS011;2585;48.696;10.066;2023-02-01T07:53:02;3.75;;;2.60;;
5133;SDS011;2585;48.696;10.066;2023-02-01T07:55:29;4.57;;;2.30;;
5133;SDS011;2585;48.696;10.066;2023-02-01T07:57:57;7.22;;;2.28;;
5133;SDS011;2585;48.696;10.066;2023-02-01T08:00:25;2.95;;;2.13;;
5133;SDS011;2585;48.696;10.066;2023-02-01T08:03:10;4.60;;;2.40;;
5133;SDS011;2585;48.696;10.066;2023-02-01T08:05:37;6.75;;;2.55;;
5133;SDS011;2585;48.696;10.066;2023-02-01T08:08:04;2.47;;;2.10;;
5133;SDS011;2585;48.696;10.066;2023-02-01T08:10:31;3.90;;;2.30;;
5133;SDS011;2585;48.696;10.066;2023-02-01T08:13:01;4.90;;;2.30;;
5133;SDS011;2585;48.696;10.066;2023-02-01T08:15:29;2.85;;;2.22;;
5133;SDS011;2585;48.696;10.066;2023-02-01T08:17:56;4.55;;;2.42;;
5133;SDS011;2585;48.696;10.066;2023-02-01T08:20:24;8.13;;;3.20;;
5133;SDS011;2585;48.696;10.066;2023-02-01T08:22:54;9.15;;;2.92;;
5133;SDS011;2585;48.696;10.066;2023-02-01T08:25:21;3.42;;;2.33;;
5133;SDS011;2585;48.696;10.066;2023-02-01T08:27:49;6.05;;;3.35;;
5133;SDS011;2585;48.696;10.066;2023-02-01T08:30:16;5.32;;;2.80;;
5133;SDS011;2585;48.696;10.066;2023-02-01T08:32:43;3.67;;;2.30;;
5133;SDS011;2585;48.696;10.066;2023-02-01T08:35:10;4.25;;;2.47;;
5133;SDS011;2585;48.696;10.066;2023-02-01T08:37:37;7.93;;;2.40;;
5133;SDS011;2585;48.696;10.066;2023-02-01T08:40:04;3.35;;;2.58;;
5133;SDS011;2585;48.696;10.066;2023-02-01T08:42:32;10.43;;;3.00;;
5133;SDS011;2585;48.696;10.066;2023-02-01T08:45:17;4.28;;;2.72;;
5133;SDS011;2585;48.696;10.066;2023-02-01T08:47:53;3.20;;;2.40;;
5133;SDS011;2585;48.696;10.066;2023-02-01T08:50:20;3.35;;;2.70;;
5133;SDS011;2585;48.696;10.066;2023-02-01T08:52:48;3.85;;;2.63;;
5133;SDS011;2585;48.696;10.066;2023-02-01T08:55:16;3.05;;;2.30;;
5133;SDS011;2585;48.696;10.066;2023-02-01T08:57:43;3.95;;;2.42;;
5133;SDS011;2585;48.696;10.066;2023-02-01T09:00:14;6.45;;;2.83;;
5133;SDS011;2585;48.696;10.066;2023-02-01T09:02:42;5.55;;;2.55;;
5133;SDS011;2585;48.696;10.066;2023-02-01T09:05:10;9.48;;;2.70;;
5133;SDS011;2585;48.696;10.066;2023-02-01T09:07:37;6.43;;;2.38;;
5133;SDS011;2585;48.696;10.066;2023-02-01T09:10:04;5.18;;;2.67;;
5133;SDS011;2585;48.696;10.066;2023-02-01T09:12:32;4.03;;;2.10;;
5133;SDS011;2585;48.696;10.066;2023-02-01T09:14:59;7.50;;;2.70;;
5133;SDS011;2585;48.696;10.066;2023-02-01T09:17:27;10.65;;;2.50;;
5133;SDS011;2585;48.696;10.066;2023-02-01T09:19:55;4.18;;;2.20;;
5133;SDS011;2585;48.696;10.066;2023-02-01T09:22:22;9.90;;;3.20;;
5133;SDS011;2585;48.696;10.066;2023-02-01T09:24:48;7.05;;;2.13;;
5133;SDS011;2585;48.696;10.066;2023-02-01T09:27:15;7.00;;;2.33;;
5133;SDS011;2585;48.696;10.066;2023-02-01T09:29:42;7.35;;;2.38;;
5133;SDS011;2585;48.696;10.066;2023-02-01T09:32:09;6.97;;;2.95;;
5133;SDS011;2585;48.696;10.066;2023-02-01T09:34:36;4.80;;;2.72;;
5133;SDS011;2585;48.696;10.066;2023-02-01T09:37:03;6.40;;;3.03;;
5133;SDS011;2585;48.696;10.066;2023-02-01T09:39:30;7.53;;;3.10;;
5133;SDS011;2585;48.696;10.066;2023-02-01T09:42:00;4.85;;;2.05;;
5133;SDS011;2585;48.696;10.066;2023-02-01T09:44:49;11.00;;;2.42;;
5133;SDS011;2585;48.696;10.066;2023-02-01T09:47:38;6.05;;;2.42;;
5133;SDS011;2585;48.696;10.066;2023-02-01T09:50:13;16.75;;;2.63;;
5133;SDS011;2585;48.696;10.066;2023-02-01T09:52:44;9.30;;;2.78;;
5133;SDS011;2585;48.696;10.066;2023-02-01T09:55:34;3.80;;;2.15;;
5133;SDS011;2585;48.696;10.066;2023-02-01T10:00:50;6.20;;;2.58;;
5133;SDS011;2585;48.696;10.066;2023-02-01T10:03:19;4.80;;;2.70;;
5133;SDS011;2585;48.696;10.066;2023-02-01T10:14:13;3.13;;;2.10;;
5133;SDS011;2585;48.696;10.066;2023-02-01T10:28:17;10.98;;;2.70;;
5133;SDS011;2585;48.696;10.066;2023-02-01T10:30:46;14.88;;;3.58;;
5133;SDS011;2585;48.696;10.066;2023-02-01T10:33:16;10.52;;;3.35;;
5133;SDS011;2585;48.696;10.066;2023-02-01T10:35:52;11.32;;;3.55;;
5133;SDS011;2585;48.696;10.066;2023-02-01T10:38:34;11.02;;;3.83;;
5133;SDS011;2585;48.696;10.066;2023-02-01T10:41:02;13.88;;;4.85;;
5133;SDS011;2585;48.696;10.066;2023-02-01T10:43:38;8.32;;;2.72;;
5133;SDS011;2585;48.696;10.066;2023-02-01T10:46:06;8.07;;;2.90;;
5133;SDS011;2585;48.696;10.066;2023-02-01T10:48:34;5.43;;;2.85;;
5133;SDS011;2585;48.696;10.066;2023-02-01T10:51:06;6.43;;;3.65;;
5133;SDS011;2585;48.696;10.066;2023-02-01T10:53:42;10.43;;;3.60;;
5133;SDS011;2585;48.696;10.066;2023-02-01T10:56:21;6.55;;;3.38;;
5133;SDS011;2585;48.696;10.066;2023-02-01T10:58:50;5.38;;;2.80;;
5133;SDS011;2585;48.696;10.066;2023-02-01T11:01:19;6.03;;;2.10;;
5133;SDS011;2585;48.696;10.066;2023-02-01T11:08:56;5.43;;;2.42;;
5133;SDS011;2585;48.696;10.066;2023-02-01T11:11:25;10.32;;;3.38;;
5133;SDS011;2585;48.696;10.066;2023-02-01T11:13:53;11.13;;;2.85;;
5133;SDS011;2585;48.696;10.066;2023-02-01T11:16:28;11.23;;;2.83;;
5133;SDS011;2585;48.696;10.066;2023-02-01T11:18:59;8.77;;;2.78;;
5133;SDS011;2585;48.696;10.066;2023-02-01T11:21:26;10.02;;;2.90;;
5133;SDS011;2585;48.696;10.066;2023-02-01T11:23:54;14.65;;;2.70;;
5133;SDS011;2585;48.696;10.066;2023-02-01T11:26:23;6.43;;;2.60;;
5133;SDS011;2585;48.696;10.066;2023-02-01T11:28:53;6.80;;;2.45;;
5133;SDS011;2585;48.696;10.066;2023-02-01T11:31:25;7.45;;;2.97;;
5133;SDS011;2585;48.696;10.066;2023-02-01T11:33:55;11.93;;;3.13;;
5133;SDS011;2585;48.696;10.066;2023-02-01T11:36:37;9.45;;;2.50;;
5133;SDS011;2585;48.696;10.066;2023-02-01T11:41:54;9.18;;;2.70;;
5133;SDS011;2585;48.696;10.066;2023-02-01T11:44:27;17.63;;;2.95;;
5133;SDS011;2585;48.696;10.066;2023-02-01T11:49:47;12.95;;;2.75;;
5133;SDS011;2585;48.696;10.066;2023-02-01T11:52:18;11.60;;;2.92;;
5133;SDS011;2585;48.696;10.066;2023-02-01T11:55:14;9.88;;;2.75;;
5133;SDS011;2585;48.696;10.066;2023-02-01T12:12:08;12.63;;;3.03;;
5133;SDS011;2585;48.696;10.066;2023-02-01T12:26:13;11.00;;;2.65;;
5133;SDS011;2585;48.696;10.066;2023-02-01T12:37:41;10.48;;;3.30;;
5133;SDS011;2585;48.696;10.066;2023-02-01T12:43:20;7.22;;;3.00;;
5133;SDS011;2585;48.696;10.066;2023-02-01T12:46:26;9.35;;;2.92;;
5133;SDS011;2585;48.696;10.066;2023-02-01T12:49:15;16.95;;;3.85;;
5133;SDS011;2585;48.696;10.066;2023-02-01T12:52:42;10.68;;;3.38;;
5133;SDS011;2585;48.696;10.066;2023-02-01T12:55:07;13.32;;;2.80;;
5133;SDS011;2585;48.696;10.066;2023-02-01T12:57:37;13.57;;;3.55;;
5133;SDS011;2585;48.696;10.066;2023-02-01T13:03:28;10.15;;;3.03;;
5133;SDS011;2585;48.696;10.066;2023-02-01T13:06:03;10.65;;;3.75;;
5133;SDS011;2585;48.696;10.066;2023-02-01T13:08:48;11.88;;;3.35;;
5133;SDS011;2585;48.696;10.066;2023-02-01T13:11:26;11.55;;;2.95;;
5133;SDS011;2585;48.696;10.066;2023-02-01T13:16:28;7.10;;;2.42;;
5133;SDS011;2585;48.696;10.066;2023-02-01T13:19:04;12.80;;;3.38;;
5133;SDS011;2585;48.696;10.066;2023-02-01T13:21:40;7.95;;;2.90;;
5133;SDS011;2585;48.696;10.066;2023-02-01T13:27:29;12.77;;;2.90;;
5133;SDS011;2585;48.696;10.066;2023-02-01T13:30:01;7.80;;;3.00;;
5133;SDS011;2585;48.696;10.066;2023-02-01T13:38:53;15.15;;;3.00;;
5133;SDS011;2585;48.696;10.066;2023-02-01T13:41:59;11.20;;;3.13;;
5133;SDS011;2585;48.696;10.066;2023-02-01T13:44:43;19.27;;;3.50;;
5133;SDS011;2585;48.696;10.066;2023-02-01T13:49:53;8.20;;;2.67;;
5133;SDS011;2585;48.696;10.066;2023-02-01T13:52:32;11.20;;;3.90;;
5133;SDS011;2585;48.696;10.066;2023-02-01T13:57:46;12.10;;;3.50;;
5133;SDS011;2585;48.696;10.066;2023-02-01T14:00:34;11.00;;;3.75;;
5133;SDS011;2585;48.696;10.066;2023-02-01T14:16:14;11.60;;;3.15;;
5133;SDS011;2585;48.696;10.066;2023-02-01T14:34:39;14.32;;;3.83;;
5133;SDS011;2585;48.696;10.066;2023-02-01T14:37:31;13.18;;;2.92;;
5133;SDS011;2585;48.696;10.066;2023-02-01T14:42:49;15.02;;;2.90;;
5133;SDS011;2585;48.696;10.066;2023-02-01T14:47:46;7.43;;;2.67;;
5133;SDS011;2585;48.696;10.066;2023-02-01T15:06:23;17.02;;;3.63;;
5133;SDS011;2585;48.696;10.066;2023-02-01T15:15:09;8.93;;;3.50;;
5133;SDS011;2585;48.696;10.066;2023-02-01T15:17:49;9.15;;;2.63;;
5133;SDS011;2585;48.696;10.066;2023-02-01T15:20:29;10.43;;;3.00;;
5133;SDS011;2585;48.696;10.066;2023-02-01T15:23:00;10.65;;;2.78;;
5133;SDS011;2585;48.696;10.066;2023-02-01T15:25:29;12.60;;;2.90;;
5133;SDS011;2585;48.696;10.066;2023-02-01T15:28:02;9.73;;;2.70;;
5133;SDS011;2585;48.696;10.066;2023-02-01T15:30:31;10.77;;;3.40;;
5133;SDS011;2585;48.696;10.066;2023-02-01T15:35:44;12.35;;;3.03;;
5133;SDS011;2585;48.696;10.066;2023-02-01T15:41:09;9.13;;;2.80;;
5133;SDS011;2585;48.696;10.066;2023-02-01T15:43:41;11.70;;;3.85;;
5133;SDS011;2585;48.696;10.066;2023-02-01T15:46:11;6.97;;;2.85;;
5133;SDS011;2585;48.696;10.066;2023-02-01T15:48:48;9.60;;;3.63;;
5133;SDS011;2585;48.696;10.066;2023-02-01T15:51:19;14.82;;;2.83;;
5133;SDS011;2585;48.696;10.066;2023-02-01T15:53:50;10.90;;;3.38;;
5133;SDS011;2585;48.696;10.066;2023-02-01T15:56:23;15.15;;;3.30;;
5133;SDS011;2585;48.696;10.066;2023-02-01T15:58:53;10.93;;;2.60;;
5133;SDS011;2585;48.696;10.066;2023-02-01T16:01:24;16.63;;;4.15;;
5133;SDS011;2585;48.696;10.066;2023-02-01T16:06:37;14.00;;;3.80;;
5133;SDS011;2585;48.696;10.066;2023-02-01T16:09:22;16.13;;;4.00;;
5133;SDS011;2585;48.696;10.066;2023-02-01T16:11:55;9.65;;;4.38;;
5133;SDS011;2585;48.696;10.066;2023-02-01T16:14:26;10.82;;;2.78;;
5133;SDS011;2585;48.696;10.066;2023-02-01T16:16:54;15.18;;;3.70;;
5133;SDS011;2585;48.696;10.066;2023-02-01T16:19:23;16.75;;;3.28;;
5133;SDS011;2585;48.696;10.066;2023-02-01T16:21:57;11.65;;;3.85;;
5133;SDS011;2585;48.696;10.066;2023-02-01T16:24:25;10.25;;;3.45;;
5133;SDS011;2585;48.696;10.066;2023-02-01T16:26:52;15.30;;;3.55;;
5133;SDS011;2585;48.696;10.066;2023-02-01T16:29:18;9.23;;;3.30;;
5133;SDS011;2585;48.696;10.066;2023-02-01T16:31:47;11.90;;;4.03;;
5133;SDS011;2585;48.696;10.066;2023-02-01T16:34:15;9.90;;;3.13;;
5133;SDS011;2585;48.696;10.066;2023-02-01T16:36:43;15.55;;;3.88;;
5133;SDS011;2585;48.696;10.066;2023-02-01T16:39:18;11.10;;;3.20;;
5133;SDS011;2585;48.696;10.066;2023-02-01T16:41:46;5.05;;;2.63;;
5133;SDS011;2585;48.696;10.066;2023-02-01T16:44:13;12.40;;;3.20;;
5133;SDS011;2585;48.696;10.066;2023-02-01T16:46:40;10.90;;;3.40;;
5133;SDS011;2585;48.696;10.066;2023-02-01T16:49:27;10.38;;;3.55;;
5133;SDS011;2585;48.696;10.066;2023-02-01T16:51:57;18.77;;;2.83;;
5133;SDS011;2585;48.696;10.066;2023-02-01T16:54:25;10.70;;;3.58;;
5133;SDS011;2585;48.696;10.066;2023-02-01T16:56:52;9.48;;;4.00;;
5133;SDS011;2585;48.696;10.066;2023-02-01T16:59:20;8.90;;;3.70;;
5133;SDS011;2585;48.696;10.066;2023-02-01T17:01:47;13.15;;;3.58;;
5133;SDS011;2585;48.696;10.066;2023-02-01T17:04:13;11.13;;;3.33;;
5133;SDS011;2585;48.696;10.066;2023-02-01T17:06:42;14.93;;;3.05;;
5133;SDS011;2585;48.696;10.066;2023-02-01T17:09:13;12.13;;;3.85;;
5133;SDS011;2585;48.696;10.066;2023-02-01T17:11:40;16.75;;;3.08;;
5133;SDS011;2585;48.696;10.066;2023-02-01T17:14:15;13.90;;;3.20;;
5133;SDS011;2585;48.696;10.066;2023-02-01T17:16:48;10.98;;;3.60;;
5133;SDS011;2585;48.696;10.066;2023-02-01T17:19:16;13.32;;;3.08;;
5133;SDS011;2585;48.696;10.066;2023-02-01T17:21:50;8.85;;;2.70;;
5133;SDS011;2585;48.696;10.066;2023-02-01T17:24:22;14.98;;;3.42;;
5133;SDS011;2585;48.696;10.066;2023-02-01T17:26:53;6.63;;;3.33;;
5133;SDS011;2585;48.696;10.066;2023-02-01T17:29:21;7.68;;;2.65;;
5133;SDS011;2585;48.696;10.066;2023-02-01T17:31:52;11.02;;;3.65;;
5133;SDS011;2585;48.696;10.066;2023-02-01T17:34:20;11.27;;;3.42;;
5133;SDS011;2585;48.696;10.066;2023-02-01T17:36:48;11.63;;;3.45;;
5133;SDS011;2585;48.696;10.066;2023-02-01T17:39:15;8.75;;;3.53;;
5133;SDS011;2585;48.696;10.066;2023-02-01T17:42:01;16.88;;;3.53;;
5133;SDS011;2585;48.696;10.066;2023-02-01T17:44:30;18.63;;;4.30;;
5133;SDS011;2585;48.696;10.066;2023-02-01T17:46:57;13.98;;;3.78;;
5133;SDS011;2585;48.696;10.066;2023-02-01T17:49:25;10.27;;;3.78;;
5133;SDS011;2585;48.696;10.066;2023-02-01T17:51:54;13.85;;;3.38;;
5133;SDS011;2585;48.696;10.066;2023-02-01T17:54:25;12.63;;;3.65;;
5133;SDS011;2585;48.696;10.066;2023-02-01T17:56:52;10.98;;;3.33;;
5133;SDS011;2585;48.696;10.066;2023-02-01T17:59:18;15.82;;;3.70;;
5133;SDS011;2585;48.696;10.066;2023-02-01T18:01:45;17.35;;;4.78;;
5133;SDS011;2585;48.696;10.066;2023-02-01T18:04:12;9.30;;;3.05;;
5133;SDS011;2585;48.696;10.066;2023-02-01T18:06:42;17.98;;;3.65;;
5133;SDS011;2585;48.696;10.066;2023-02-01T18:09:10;15.95;;;3.20;;
5133;SDS011;2585;48.696;10.066;2023-02-01T18:11:37;9.55;;;3.05;;
5133;SDS011;2585;48.696;10.066;2023-02-01T18:14:03;15.05;;;3.35;;
5133;SDS011;2585;48.696;10.066;2023-02-01T18:16:31;12.88;;;4.35;;
5133;SDS011;2585;48.696;10.066;2023-02-01T18:18:59;14.13;;;3.60;;
5133;SDS011;2585;48.696;10.066;2023-02-01T18:21:34;11.40;;;3.28;;
5133;SDS011;2585;48.696;10.066;2023-02-01T18:24:14;10.05;;;2.95;;
5133;SDS011;2585;48.696;10.066;2023-02-01T18:26:42;18.00;;;3.15;;
5133;SDS011;2585;48.696;10.066;2023-02-01T18:29:09;16.38;;;2.95;;
5133;SDS011;2585;48.696;10.066;2023-02-01T18:31:38;13.32;;;2.63;;